createdAt,value
2019-01-20T00:00:39.367Z,32.70
2019-01-20T00:03:07.639Z,34.53
2019-01-20T00:05:36.880Z,34.53
2019-01-20T00:08:05.418Z,33.83
2019-01-20T00:10:34.153Z,34.07
2019-01-20T00:13:02.327Z,34.33
2019-01-20T00:15:32.265Z,34.27
2019-01-20T00:18:00.684Z,34.23
2019-01-20T00:20:29.319Z,33.03
2019-01-20T00:22:57.458Z,34.27
2019-01-20T00:25:25.633Z,32.87
2019-01-20T00:27:53.884Z,36.20
2019-01-20T00:30:22.419Z,34.03
2019-01-20T00:32:50.751Z,31.13
2019-01-20T00:35:18.964Z,33.40
2019-01-20T00:37:47.370Z,31.23
2019-01-20T00:40:15.766Z,30.93
2019-01-20T00:42:44.872Z,30.40
2019-01-20T00:45:15.184Z,33.10
2019-01-20T00:47:43.310Z,32.50
2019-01-20T00:50:13.369Z,32.33
2019-01-20T00:52:41.955Z,32.50
2019-01-20T00:55:13.898Z,32.33
2019-01-20T00:57:43.058Z,32.50
2019-01-20T01:00:19.747Z,33.03
2019-01-20T01:02:47.962Z,34.27
2019-01-20T01:05:18.434Z,34.07
2019-01-20T01:07:46.844Z,34.30
2019-01-20T01:10:15.491Z,34.23
2019-01-20T01:12:44.002Z,32.93
2019-01-20T01:15:12.661Z,33.00
2019-01-20T01:17:40.980Z,34.43
2019-01-20T01:20:11.832Z,34.33
2019-01-20T01:22:40.182Z,32.93
2019-01-20T01:25:10.706Z,33.77
2019-01-20T01:27:38.883Z,35.97
2019-01-20T01:30:12.790Z,36.00
2019-01-20T01:32:40.926Z,33.57
2019-01-20T01:35:09.818Z,35.13
2019-01-20T01:37:38.254Z,34.87
2019-01-20T01:40:08.527Z,36.20
2019-01-20T01:42:36.711Z,35.57
2019-01-20T01:45:09.182Z,35.10
2019-01-20T01:47:37.295Z,34.33
2019-01-20T01:50:06.492Z,34.80
2019-01-20T01:52:34.926Z,36.03
2019-01-20T01:55:03.938Z,35.10
2019-01-20T01:57:32.072Z,33.17
2019-01-20T02:00:01.608Z,36.10
2019-01-20T02:02:30.399Z,35.43
2019-01-20T02:04:58.618Z,36.57
2019-01-20T02:07:26.735Z,35.80
2019-01-20T02:09:54.972Z,35.57
2019-01-20T02:12:24.926Z,37.20
2019-01-20T02:14:53.202Z,35.43
2019-01-20T02:17:21.635Z,36.53
2019-01-20T02:19:49.985Z,36.37
2019-01-20T02:22:18.094Z,36.10
2019-01-20T02:24:46.226Z,36.53
2019-01-20T02:27:14.384Z,36.07
2019-01-20T02:29:42.508Z,35.93
2019-01-20T02:32:10.765Z,36.07
2019-01-20T02:34:38.838Z,37.53
2019-01-20T02:37:08.210Z,37.73
2019-01-20T02:39:36.386Z,36.33
2019-01-20T02:42:04.861Z,35.73
2019-01-20T02:44:33.342Z,38.07
2019-01-20T02:47:01.785Z,36.77
2019-01-20T02:49:30.002Z,36.00
2019-01-20T02:51:58.275Z,36.93
2019-01-20T02:54:26.392Z,36.13
2019-01-20T02:56:54.730Z,36.37
2019-01-20T02:59:22.914Z,35.97
2019-01-20T03:01:51.441Z,38.27
2019-01-20T03:04:19.506Z,38.90
2019-01-20T03:06:47.805Z,38.60
2019-01-20T03:09:16.070Z,37.33
2019-01-20T03:11:44.119Z,36.10
2019-01-20T03:14:12.173Z,39.27
2019-01-20T03:16:40.260Z,37.67
2019-01-20T03:19:08.626Z,37.90
2019-01-20T03:21:36.832Z,38.23
2019-01-20T03:24:05.042Z,37.37
2019-01-20T03:26:33.735Z,37.37
2019-01-20T03:29:01.863Z,37.43
2019-01-20T03:31:30.257Z,38.30
2019-01-20T03:33:58.366Z,38.70
2019-01-20T03:36:26.510Z,38.03
2019-01-20T03:38:54.645Z,38.23
2019-01-20T03:41:22.851Z,38.90
2019-01-20T03:43:51.127Z,37.20
2019-01-20T03:46:19.474Z,39.23
2019-01-20T03:48:47.558Z,38.87
2019-01-20T03:51:15.925Z,39.63
2019-01-20T03:53:44.055Z,39.10
2019-01-20T03:56:12.143Z,38.90
2019-01-20T03:58:40.235Z,38.87
2019-01-20T04:01:08.544Z,40.00
2019-01-20T04:03:36.690Z,39.03
2019-01-20T04:06:05.252Z,40.10
2019-01-20T04:08:33.909Z,41.20
2019-01-20T04:11:02.407Z,38.63
2019-01-20T04:13:30.610Z,38.23
2019-01-20T04:15:58.679Z,38.67
2019-01-20T04:18:27.195Z,40.93
2019-01-20T04:20:55.405Z,40.10
2019-01-20T04:23:23.546Z,40.37
2019-01-20T04:25:51.679Z,39.90
2019-01-20T04:28:20.169Z,41.53
2019-01-20T04:30:48.855Z,39.37
2019-01-20T04:33:17.024Z,40.10
2019-01-20T04:35:45.232Z,40.40
2019-01-20T04:38:13.408Z,40.17
2019-01-20T04:40:41.951Z,40.70
2019-01-20T04:43:10.067Z,41.37
2019-01-20T04:45:39.223Z,40.77
2019-01-20T04:48:07.819Z,42.17
2019-01-20T04:50:36.428Z,42.40
2019-01-20T04:53:04.487Z,43.00
2019-01-20T04:55:34.562Z,40.33
2019-01-20T04:58:04.101Z,43.80
2019-01-20T05:00:32.402Z,42.93
2019-01-20T05:03:00.740Z,40.07
2019-01-20T05:05:28.954Z,43.43
2019-01-20T05:07:57.138Z,42.17
2019-01-20T05:10:25.377Z,43.40
2019-01-20T05:12:53.643Z,40.93
2019-01-20T05:15:23.804Z,42.03
2019-01-20T05:17:52.114Z,43.23
2019-01-20T05:20:20.340Z,42.00
2019-01-20T05:22:48.737Z,42.27
2019-01-20T05:25:17.026Z,42.57
2019-01-20T05:27:45.408Z,42.83
2019-01-20T05:30:28.021Z,43.27
2019-01-20T05:32:56.140Z,41.77
2019-01-20T05:35:24.649Z,44.00
2019-01-20T05:37:52.973Z,44.10
2019-01-20T05:40:21.680Z,41.80
2019-01-20T05:42:49.770Z,40.80
2019-01-20T05:45:22.000Z,43.07
2019-01-20T05:47:50.170Z,43.47
2019-01-20T05:50:18.771Z,41.40
2019-01-20T05:52:46.931Z,43.00
2019-01-20T05:55:15.373Z,41.30
2019-01-20T05:57:43.601Z,43.53
2019-01-20T06:00:22.138Z,42.83
2019-01-20T06:02:50.365Z,43.10
2019-01-20T06:05:19.771Z,43.63
2019-01-20T06:07:47.965Z,41.77
2019-01-20T06:10:16.322Z,42.53
2019-01-20T06:12:44.520Z,43.37
2019-01-20T06:15:15.805Z,41.73
2019-01-20T06:17:44.008Z,42.10
2019-01-20T06:20:12.950Z,41.77
2019-01-20T06:22:41.160Z,41.73
2019-01-20T06:25:09.283Z,43.90
2019-01-20T06:27:37.656Z,43.33
2019-01-20T06:30:12.795Z,43.23
2019-01-20T06:32:41.030Z,42.50
2019-01-20T06:35:09.165Z,42.93
2019-01-20T06:37:37.183Z,43.07
2019-01-20T06:40:06.202Z,42.47
2019-01-20T06:42:34.529Z,42.43
2019-01-20T06:45:03.476Z,41.70
2019-01-20T06:47:31.545Z,40.80
2019-01-20T06:49:59.594Z,40.23
2019-01-20T06:52:27.613Z,40.93
2019-01-20T06:54:55.767Z,40.03
2019-01-20T06:57:24.015Z,40.40
2019-01-20T06:59:52.086Z,41.90
2019-01-20T07:02:20.292Z,42.60
2019-01-20T07:04:48.536Z,41.90
2019-01-20T07:07:16.835Z,41.63
2019-01-20T07:09:45.223Z,39.87
2019-01-20T07:12:13.420Z,41.10
2019-01-20T07:14:41.509Z,39.37
2019-01-20T07:17:09.580Z,39.10
2019-01-20T07:19:38.015Z,39.90
2019-01-20T07:22:06.224Z,41.40
2019-01-20T07:24:34.407Z,41.50
2019-01-20T07:27:02.477Z,40.33
2019-01-20T07:29:30.718Z,40.40
2019-01-20T07:31:58.832Z,40.87
2019-01-20T07:34:27.538Z,41.60
2019-01-20T07:36:55.880Z,41.53
2019-01-20T07:39:24.018Z,41.97
2019-01-20T07:41:52.197Z,41.77
2019-01-20T07:44:20.335Z,42.50
2019-01-20T07:46:48.548Z,41.83
2019-01-20T07:49:16.996Z,43.17
2019-01-20T07:51:45.160Z,42.23
2019-01-20T07:54:13.407Z,41.40
2019-01-20T07:56:41.801Z,38.50
2019-01-20T07:59:09.944Z,39.30
2019-01-20T08:01:38.147Z,39.37
2019-01-20T08:04:06.483Z,39.63
2019-01-20T08:06:34.557Z,38.10
2019-01-20T08:09:05.903Z,37.53
2019-01-20T08:11:33.988Z,37.47
2019-01-20T08:14:02.314Z,38.33
2019-01-20T08:16:30.609Z,38.30
2019-01-20T08:18:58.842Z,37.47
2019-01-20T08:21:27.075Z,39.50
2019-01-20T08:23:55.186Z,39.47
2019-01-20T08:26:23.532Z,38.43
2019-01-20T08:28:51.791Z,39.20
2019-01-20T08:31:20.031Z,38.67
2019-01-20T08:33:48.312Z,36.63
2019-01-20T08:36:16.403Z,37.17
2019-01-20T08:38:44.716Z,39.17
2019-01-20T08:41:12.923Z,37.43
2019-01-20T08:43:41.116Z,36.03
2019-01-20T08:46:39.175Z,36.73
2019-01-20T08:49:07.481Z,38.13
2019-01-20T08:51:38.566Z,35.07
2019-01-20T08:54:06.680Z,36.20
2019-01-20T08:56:35.024Z,36.53
2019-01-20T08:59:03.249Z,35.83
2019-01-20T09:01:32.897Z,33.57
2019-01-20T09:04:01.192Z,34.33
2019-01-20T09:06:30.024Z,35.30
2019-01-20T09:08:58.454Z,36.37
2019-01-20T09:11:26.753Z,36.00
2019-01-20T09:13:54.990Z,35.23
2019-01-20T09:16:23.208Z,36.07
2019-01-20T09:18:51.350Z,34.67
2019-01-20T09:21:19.632Z,34.67
2019-01-20T09:23:47.749Z,35.73
2019-01-20T09:26:15.805Z,37.10
2019-01-20T09:28:43.906Z,36.33
2019-01-20T09:31:12.325Z,35.10
2019-01-20T09:33:40.975Z,34.03
2019-01-20T09:36:09.113Z,34.97
2019-01-20T09:38:37.284Z,32.60
2019-01-20T09:41:05.428Z,32.47
2019-01-20T09:43:33.665Z,33.90
2019-01-20T09:46:03.029Z,32.00
2019-01-20T09:48:31.159Z,30.77
2019-01-20T09:50:59.253Z,30.73
2019-01-20T09:53:27.332Z,31.17
2019-01-20T09:55:55.557Z,29.77
2019-01-20T09:58:23.991Z,30.40
2019-01-20T10:00:52.363Z,27.97
2019-01-20T10:03:20.549Z,31.60
2019-01-20T10:05:49.042Z,32.23
2019-01-20T10:08:17.484Z,32.10
2019-01-20T10:10:46.938Z,34.63
2019-01-20T10:13:15.372Z,32.70
2019-01-20T10:15:44.690Z,32.47
2019-01-20T10:18:13.147Z,33.03
2019-01-20T10:20:41.766Z,32.40
2019-01-20T10:23:10.599Z,32.93
2019-01-20T10:25:38.907Z,35.30
2019-01-20T10:28:10.325Z,34.30
2019-01-20T10:30:38.886Z,34.33
2019-01-20T10:33:07.088Z,34.17
2019-01-20T10:35:51.358Z,35.00
2019-01-20T10:38:19.456Z,34.97
2019-01-20T10:40:47.914Z,36.70
2019-01-20T10:43:16.150Z,34.50
2019-01-20T10:45:44.491Z,32.73
2019-01-20T10:48:12.793Z,30.53
2019-01-20T10:50:41.349Z,33.13
2019-01-20T10:53:10.386Z,32.63
2019-01-20T10:55:39.415Z,30.00
2019-01-20T10:58:08.011Z,31.90
2019-01-20T11:00:39.049Z,31.63
2019-01-20T11:03:08.494Z,31.27
2019-01-20T11:05:37.238Z,31.87
2019-01-20T11:08:05.623Z,32.23
2019-01-20T11:10:34.248Z,31.53
2019-01-20T11:13:03.042Z,32.00
2019-01-20T11:15:31.304Z,30.47
2019-01-20T11:17:59.438Z,33.17
2019-01-20T11:20:27.860Z,31.47
2019-01-20T11:22:57.390Z,32.17
2019-01-20T11:25:29.509Z,31.23
2019-01-20T11:27:57.879Z,33.03
2019-01-20T11:30:26.055Z,32.53
2019-01-20T11:32:54.169Z,34.03
2019-01-20T11:35:22.838Z,33.50
2019-01-20T11:37:51.426Z,32.37
2019-01-20T11:40:19.691Z,32.90
2019-01-20T11:42:48.245Z,33.30
2019-01-20T11:45:25.939Z,31.03
2019-01-20T11:50:42.118Z,32.50
2019-01-20T11:53:10.180Z,32.07
2019-01-20T11:55:38.613Z,31.37
2019-01-20T11:58:07.076Z,31.93
2019-01-20T12:00:40.735Z,30.90
2019-01-20T12:03:08.960Z,31.17
2019-01-20T12:05:40.828Z,31.63
2019-01-20T12:08:09.379Z,30.63
2019-01-20T12:10:37.886Z,31.20
2019-01-20T12:13:07.853Z,31.53
2019-01-20T12:15:36.350Z,29.10
2019-01-20T12:18:05.974Z,30.13
2019-01-20T12:20:34.263Z,29.87
2019-01-20T12:23:02.306Z,30.03
2019-01-20T12:25:30.369Z,30.07
2019-01-20T12:27:58.695Z,30.10
2019-01-20T12:30:29.698Z,29.10
2019-01-20T12:32:59.292Z,29.77
2019-01-20T12:35:27.462Z,28.33
2019-01-20T12:37:55.636Z,28.77
2019-01-20T12:40:54.693Z,28.90
2019-01-20T12:43:23.985Z,27.23
2019-01-20T12:45:53.198Z,28.00
2019-01-20T12:48:21.260Z,28.73
2019-01-20T12:50:49.677Z,29.57
2019-01-20T12:53:17.824Z,28.57
2019-01-20T12:55:45.982Z,29.63
2019-01-20T12:58:14.628Z,27.57
2019-01-20T13:00:43.003Z,26.37
2019-01-20T13:03:11.128Z,27.83
2019-01-20T13:05:39.297Z,28.77
2019-01-20T13:08:07.981Z,28.07
2019-01-20T13:10:36.288Z,27.60
2019-01-20T13:13:05.214Z,27.13
2019-01-20T13:15:33.551Z,28.73
2019-01-20T13:18:01.808Z,28.60
2019-01-20T13:20:30.018Z,28.43
2019-01-20T13:22:58.194Z,27.67
2019-01-20T13:25:29.482Z,27.93
2019-01-20T13:27:57.654Z,26.90
2019-01-20T13:30:28.044Z,27.70
2019-01-20T13:32:56.129Z,29.90
2019-01-20T13:35:26.198Z,30.07
2019-01-20T13:38:16.283Z,29.10
2019-01-20T13:40:53.383Z,29.97
2019-01-20T13:43:21.517Z,31.37
2019-01-20T13:45:49.711Z,32.87
2019-01-20T13:48:17.859Z,34.73
2019-01-20T13:50:46.370Z,36.47
2019-01-20T13:53:14.957Z,38.13
2019-01-20T13:55:43.138Z,36.53
2019-01-20T13:58:11.364Z,37.70
2019-01-20T14:00:39.549Z,37.80
2019-01-20T14:03:07.860Z,37.83
2019-01-20T14:05:35.955Z,40.10
2019-01-20T14:08:04.037Z,40.50
2019-01-20T14:10:32.159Z,39.33
2019-01-20T14:13:00.424Z,39.93
2019-01-20T14:15:28.666Z,39.60
2019-01-20T14:17:56.725Z,40.07
2019-01-20T14:20:24.930Z,39.63
2019-01-20T14:22:53.158Z,39.57
2019-01-20T14:25:23.179Z,40.80
2019-01-20T14:27:51.542Z,40.33
2019-01-20T14:30:23.577Z,38.73
2019-01-20T14:32:51.783Z,37.80
2019-01-20T14:35:20.142Z,37.13
2019-01-20T14:37:48.243Z,38.37
2019-01-20T14:40:17.142Z,38.70
2019-01-20T14:42:45.751Z,41.40
2019-01-20T14:45:14.706Z,41.37
2019-01-20T14:47:43.012Z,40.57
2019-01-20T14:50:16.823Z,39.87
2019-01-20T14:52:45.090Z,38.97
2019-01-20T14:55:13.590Z,41.87
2019-01-20T14:57:41.843Z,41.17
2019-01-20T15:00:18.604Z,40.83
2019-01-20T15:02:46.796Z,38.63
2019-01-20T15:05:16.509Z,36.53
2019-01-20T15:07:45.394Z,38.93
2019-01-20T15:10:14.881Z,36.33
2019-01-20T15:12:43.426Z,34.20
2019-01-20T15:15:16.776Z,35.40
2019-01-20T15:17:45.272Z,36.23
2019-01-20T15:20:14.533Z,34.33
2019-01-20T15:22:42.800Z,36.13
2019-01-20T15:25:12.862Z,35.53
2019-01-20T15:27:43.276Z,34.03
2019-01-20T15:30:19.876Z,33.23
2019-01-20T15:32:49.068Z,34.73
2019-01-20T15:35:17.595Z,34.07
2019-01-20T15:37:46.483Z,33.63
2019-01-20T15:40:17.871Z,34.03
2019-01-20T15:42:46.560Z,34.17
2019-01-20T15:45:17.687Z,35.20
2019-01-20T15:47:46.219Z,35.40
2019-01-20T15:50:20.903Z,35.20
2019-01-20T15:52:49.759Z,35.73
2019-01-20T15:55:17.933Z,36.13
2019-01-20T15:57:46.551Z,36.43
2019-01-20T16:00:18.592Z,36.17
2019-01-20T16:02:47.249Z,37.30
2019-01-20T16:05:17.334Z,37.93
2019-01-20T16:07:45.550Z,38.13
2019-01-20T16:10:15.138Z,40.43
2019-01-20T16:12:43.885Z,38.63
2019-01-20T16:15:25.005Z,40.83
2019-01-20T16:17:55.092Z,38.43
2019-01-20T16:20:24.344Z,39.33
2019-01-20T16:22:52.633Z,37.27
2019-01-20T16:25:27.933Z,41.03
2019-01-20T16:27:56.044Z,41.50
2019-01-20T16:30:27.900Z,40.73
2019-01-20T16:32:55.971Z,40.13
2019-01-20T16:35:25.237Z,39.07
2019-01-20T16:37:53.804Z,39.13
2019-01-20T16:40:23.079Z,42.47
2019-01-20T16:42:51.645Z,43.37
2019-01-20T16:45:31.926Z,43.53
2019-01-20T16:47:57.303Z,40.47
2019-01-20T16:50:25.917Z,42.00
2019-01-20T16:52:54.991Z,43.87
2019-01-20T16:55:23.636Z,44.30
2019-01-20T16:57:52.190Z,43.77
2019-01-20T17:00:24.361Z,45.03
2019-01-20T17:02:53.361Z,43.63
2019-01-20T17:05:26.554Z,43.10
2019-01-20T17:07:52.504Z,44.17
2019-01-20T17:10:24.732Z,44.30
2019-01-20T17:12:53.515Z,46.07
2019-01-20T17:15:29.234Z,42.80
2019-01-20T17:17:57.618Z,42.93
2019-01-20T17:20:26.037Z,39.93
2019-01-20T17:22:54.615Z,40.73
2019-01-20T17:25:24.225Z,41.10
2019-01-20T17:27:53.690Z,42.23
2019-01-20T17:30:25.749Z,38.93
2019-01-20T17:32:55.713Z,38.90
2019-01-20T17:35:23.966Z,40.63
2019-01-20T17:37:52.341Z,42.87
2019-01-20T17:40:23.863Z,41.47
2019-01-20T17:42:52.317Z,41.83
2019-01-20T17:45:24.301Z,41.23
2019-01-20T17:47:53.038Z,43.60
2019-01-20T17:50:25.002Z,42.13
2019-01-20T17:52:53.893Z,43.23
2019-01-20T17:55:22.143Z,45.87
2019-01-20T17:57:50.447Z,43.87
2019-01-20T18:00:23.493Z,42.30
2019-01-20T18:02:52.297Z,43.23
2019-01-20T18:05:22.966Z,43.53
2019-01-20T18:07:51.288Z,44.33
2019-01-20T18:10:19.529Z,43.10
2019-01-20T18:12:47.773Z,43.00
2019-01-20T18:15:18.099Z,42.47
2019-01-20T18:17:46.609Z,45.20
2019-01-20T18:20:21.083Z,44.50
2019-01-20T18:22:49.426Z,43.03
2019-01-20T18:25:18.371Z,42.63
2019-01-20T18:27:46.723Z,42.90
2019-01-20T18:30:19.123Z,42.87
2019-01-20T18:32:47.178Z,43.47
2019-01-20T18:35:15.337Z,44.43
2019-01-20T18:37:43.506Z,41.73
2019-01-20T18:40:14.969Z,44.37
2019-01-20T18:42:43.156Z,45.67
2019-01-20T18:45:14.946Z,43.30
2019-01-20T18:47:43.047Z,43.17
2019-01-20T18:50:15.051Z,44.40
2019-01-20T18:52:43.225Z,43.37
2019-01-20T18:55:12.362Z,42.67
2019-01-20T18:57:40.601Z,45.43
2019-01-20T19:00:19.911Z,44.13
2019-01-20T19:02:47.972Z,44.60
2019-01-20T19:05:16.959Z,43.10
2019-01-20T19:07:45.145Z,42.43
2019-01-20T19:10:14.908Z,43.27
2019-01-20T19:12:43.438Z,44.03
2019-01-20T19:15:15.111Z,43.73
2019-01-20T19:17:43.429Z,44.97
2019-01-20T19:20:20.762Z,41.90
2019-01-20T19:22:51.739Z,41.67
2019-01-20T19:25:21.347Z,42.40
2019-01-20T19:27:49.610Z,41.83
2019-01-20T19:30:30.347Z,43.97
2019-01-20T19:32:58.968Z,42.93
2019-01-20T19:35:28.357Z,44.30
2019-01-20T19:37:56.743Z,42.13
2019-01-20T19:40:25.107Z,42.77
2019-01-20T19:42:53.198Z,45.37
2019-01-20T19:45:22.016Z,42.50
2019-01-20T19:47:50.146Z,43.73
2019-01-20T19:50:18.895Z,44.03
2019-01-20T19:52:47.127Z,41.90
2019-01-20T19:55:19.234Z,41.07
2019-01-20T19:57:47.792Z,40.40
2019-01-20T20:00:19.420Z,40.43
2019-01-20T20:02:47.767Z,41.33
2019-01-20T20:05:17.698Z,41.80
2019-01-20T20:07:46.413Z,39.60
2019-01-20T20:10:17.394Z,40.67
2019-01-20T20:12:46.039Z,40.33
2019-01-20T20:15:17.588Z,41.77
2019-01-20T20:17:45.839Z,41.93
2019-01-20T20:20:15.349Z,42.40
2019-01-20T20:22:43.890Z,40.67
2019-01-20T20:25:14.014Z,41.13
2019-01-20T20:27:42.310Z,41.10
2019-01-20T20:30:15.165Z,42.33
2019-01-20T20:32:43.629Z,41.23
2019-01-20T20:35:12.163Z,41.53
2019-01-20T20:37:40.439Z,43.20
2019-01-20T20:40:11.061Z,43.83
2019-01-20T20:42:39.336Z,42.00
2019-01-20T20:45:11.189Z,43.90
2019-01-20T20:47:39.275Z,43.10
2019-01-20T20:50:10.071Z,43.13
2019-01-20T20:52:38.183Z,42.33
2019-01-20T20:55:07.425Z,44.47
2019-01-20T20:57:35.557Z,42.57
2019-01-20T21:00:09.528Z,45.30
2019-01-20T21:02:37.664Z,42.87
2019-01-20T21:05:06.434Z,42.60
2019-01-20T21:07:34.595Z,43.63
2019-01-20T21:10:03.515Z,43.90
2019-01-20T21:12:31.819Z,41.90
2019-01-20T21:15:03.368Z,45.13
2019-01-20T21:17:32.038Z,43.90
2019-01-20T21:20:00.214Z,43.93
2019-01-20T21:22:28.489Z,44.37
2019-01-20T21:24:57.556Z,48.50
2019-01-20T21:27:25.869Z,45.40
2019-01-20T21:29:54.060Z,48.20
2019-01-20T21:32:22.194Z,47.70
2019-01-20T21:34:50.301Z,54.50
2019-01-20T21:37:18.692Z,49.27
2019-01-20T21:39:47.249Z,46.47
2019-01-20T21:42:15.400Z,46.40
2019-01-20T21:44:43.595Z,47.20
2019-01-20T21:47:11.846Z,45.63
2019-01-20T21:49:39.918Z,46.20
2019-01-20T21:52:08.017Z,46.67
2019-01-20T21:54:36.259Z,46.57
2019-01-20T21:57:04.322Z,43.43
2019-01-20T21:59:32.432Z,45.00
2019-01-20T22:02:00.470Z,50.20
2019-01-20T22:04:28.670Z,43.63
2019-01-20T22:06:59.599Z,45.73
2019-01-20T22:09:27.775Z,42.50
2019-01-20T22:11:56.047Z,42.83
2019-01-20T22:14:24.181Z,41.00
2019-01-20T22:16:52.875Z,42.97
2019-01-20T22:19:21.435Z,41.10
2019-01-20T22:21:49.639Z,42.87
2019-01-20T22:24:17.856Z,43.40
2019-01-20T22:26:45.918Z,44.03
2019-01-20T22:29:14.193Z,44.87
2019-01-20T22:31:42.571Z,42.83
2019-01-20T22:34:10.813Z,43.23
2019-01-20T22:36:38.972Z,45.73
2019-01-20T22:39:07.913Z,43.37
2019-01-20T22:41:36.339Z,46.53
2019-01-20T22:44:04.562Z,46.40
2019-01-20T22:46:32.701Z,48.00
2019-01-20T22:49:01.129Z,44.63
2019-01-20T22:51:29.225Z,44.50
2019-01-20T22:53:57.361Z,44.07
2019-01-20T22:56:25.617Z,43.93
2019-01-20T22:58:53.754Z,44.07
2019-01-20T23:01:23.074Z,43.50
2019-01-20T23:03:51.243Z,45.60
2019-01-20T23:06:19.465Z,48.80
2019-01-20T23:08:47.605Z,48.07
2019-01-20T23:11:15.970Z,47.50
2019-01-20T23:13:44.349Z,46.83
2019-01-20T23:16:12.597Z,45.97
2019-01-20T23:18:40.902Z,45.07
2019-01-20T23:21:09.002Z,45.80
2019-01-20T23:23:37.295Z,44.77
2019-01-20T23:26:05.327Z,44.37
2019-01-20T23:28:33.713Z,43.70
2019-01-20T23:31:01.909Z,43.70
2019-01-20T23:33:30.050Z,44.73
2019-01-20T23:35:58.118Z,47.47
2019-01-20T23:38:26.289Z,45.33
2019-01-20T23:40:54.365Z,44.40
2019-01-20T23:43:22.645Z,46.10
2019-01-20T23:45:50.821Z,47.53
2019-01-20T23:48:18.947Z,45.30
2019-01-20T23:50:47.040Z,45.40
2019-01-20T23:53:15.218Z,47.07
2019-01-20T23:55:43.497Z,46.10
2019-01-20T23:58:11.746Z,48.57
